CYAW

Shearwater Airport

Shearwater, Canada

CYAW 221400Z 07006G16KT 15SM FEW010 SCT040 BKN100 16/12 A3018 RMK SF1SC3AC4 DA187FT SLP222

Observed Flight Rules
Sep-22 @ 14:00 UTC (an hour ago)
 
Visual Flight Rules
Wind Visibility Clouds
70° at 6 knots
 Gusting to 16 knots
15 miles
  • Few at 1,000' AGL
  • Scattered at 4,000' AGL
  • Broken at 10,000' AGL
Temperatures Readings
Current 16°C / 61°F
Dewpoint 12°C / 54°F
Humidity 77%
Altimeter 30.18" Hg
Pressure 1022.2 hPa
Elevation 51
Observed Flight Rules
Sep-22 @ 14:00 UTC
(an hour ago)
 
VFR
Wind Visibility
70° at 6 knots
 Gusting to 16 knots
15 miles
Clouds
  • Few at 1,000' AGL
  • Scattered at 4,000' AGL
  • Broken at 10,000' AGL
Temperature Dewpoint
16°C / 61°F 12°C / 54°F
Humidity Altimeter Pressure
77% 30.18" Hg 1022.2 hPa